Borehamwood, United Kingdom
Current Conditions -  °F | °C
As of 8:50 AM on Saturday 22 Nov 2014 (Local Time) from EGWU Reporting Station
Haze Haze  
Wind Chill: 54°   Ceiling: 600
Heat Index: 54°   Visibility: 1.8mi
Dew Point: 54°   Wind: 3mph
Humidity: 100%   Direction: 130°SE
Pressure: 29.88"   Gusts: NA
Location:  51.66°N, 0.27°W
Report Text: EGWU 220850Z 13003KT 3000 BR BKN006 12/12 Q1012 TEMPO 4000 -RADZ
Loading
Personal Weather Stations






























Interactive Weather Map New forecast layout! Learn more

10-Day Weather Forecast

Advertisements
Track Severe Weather on mobile